Time;durP1;ratioP1;P1;durP2;ratioP2;P2;SDS_P1;SDS_P2;PMS_P1;PMS_P2;Temp;Humidity;BMP_temperature;BMP_pressure;BME280_temperature;BME280_humidity;BME280_pressure;Samples;Min_cycle;Max_cycle;Signal;HPM_P1;HPM_P2
2023/12/04 00:01:16;;;;;;;38.35;16.73;;;;;;;;;;4981797;28;20030;-85
2023/12/04 00:03:42;;;;;;;37.30;15.05;;;;;;;;;;4982109;28;20031;-86
2023/12/04 00:06:08;;;;;;;36.50;14.95;;;;;;;;;;5013632;28;20038;-86
2023/12/04 00:08:35;;;;;;;39.38;17.05;;;;;;;;;;4995130;28;20574;-86
2023/12/04 00:11:01;;;;;;;37.10;17.02;;;;;;;;;;5012647;28;20061;-86
2023/12/04 00:13:26;;;;;;;38.90;17.10;;;;;;;;;;5017169;28;20103;-85
2023/12/04 00:15:51;;;;;;;39.60;16.45;;;;;;;;;;4996844;28;20057;-86
2023/12/04 00:18:17;;;;;;;41.55;16.90;;;;;;;;;;4966187;28;20116;-86
2023/12/04 00:20:42;;;;;;;36.05;16.25;;;;;;;;;;4977166;28;20457;-86
2023/12/04 00:23:07;;;;;;;34.60;16.35;;;;;;;;;;4990540;28;20100;-86
2023/12/04 00:25:33;;;;;;;41.50;17.17;;;;;;;;;;4998458;28;20118;-86
2023/12/04 00:27:58;;;;;;;39.15;17.05;;;;;;;;;;4984548;28;20807;-86
2023/12/04 00:30:23;;;;;;;40.58;16.65;;;;;;;;;;4999702;28;20040;-86
2023/12/04 00:32:49;;;;;;;41.05;17.65;;;;;;;;;;4988464;28;20035;-86
2023/12/04 00:35:17;;;;;;;40.10;18.10;;;;;;;;;;4995293;28;20378;-86
2023/12/04 00:37:43;;;;;;;40.10;17.48;;;;;;;;;;4996413;28;20038;-86
2023/12/04 00:40:08;;;;;;;46.22;20.02;;;;;;;;;;4996979;28;20522;-86
2023/12/04 00:42:34;;;;;;;42.80;18.33;;;;;;;;;;5013101;28;20030;-86
2023/12/04 00:44:59;;;;;;;42.83;18.25;;;;;;;;;;5000594;28;20054;-86
2023/12/04 00:47:24;;;;;;;40.05;17.40;;;;;;;;;;4998170;28;20038;-85
2023/12/04 00:49:50;;;;;;;42.67;17.95;;;;;;;;;;5013877;28;20497;-86
2023/12/04 00:52:15;;;;;;;40.90;18.23;;;;;;;;;;5011163;28;20042;-86
2023/12/04 00:54:41;;;;;;;45.08;18.25;;;;;;;;;;5001063;28;20503;-85
2023/12/04 00:57:06;;;;;;;41.05;17.45;;;;;;;;;;5000106;28;20045;-87
2023/12/04 00:59:31;;;;;;;46.03;19.88;;;;;;;;;;5013027;28;20041;-86
2023/12/04 01:01:57;;;;;;;45.70;19.40;;;;;;;;;;4993484;28;20571;-86
2023/12/04 01:04:22;;;;;;;41.10;18.00;;;;;;;;;;4998179;28;20040;-86
2023/12/04 01:06:48;;;;;;;40.90;16.98;;;;;;;;;;4996659;28;20526;-87
2023/12/04 01:09:13;;;;;;;44.20;19.38;;;;;;;;;;4967832;28;20041;-85
2023/12/04 01:11:38;;;;;;;47.33;19.88;;;;;;;;;;5005612;28;20495;-86
2023/12/04 01:14:04;;;;;;;40.95;18.27;;;;;;;;;;4990395;28;20137;-86
2023/12/04 01:16:29;;;;;;;49.90;20.20;;;;;;;;;;4998465;28;20061;-87
2023/12/04 01:18:55;;;;;;;46.25;20.05;;;;;;;;;;4996607;28;20091;-86
2023/12/04 01:21:20;;;;;;;45.40;19.75;;;;;;;;;;4995962;28;20037;-86
2023/12/04 01:23:45;;;;;;;45.45;19.65;;;;;;;;;;4994560;28;20040;-85
2023/12/04 01:26:11;;;;;;;43.97;19.70;;;;;;;;;;4989920;28;20112;-85
2023/12/04 01:28:37;;;;;;;48.47;20.17;;;;;;;;;;4996451;28;20038;-85
2023/12/04 01:31:02;;;;;;;48.22;19.83;;;;;;;;;;4989465;28;20036;-86
2023/12/04 01:33:28;;;;;;;49.05;19.92;;;;;;;;;;5010640;28;20034;-86
2023/12/04 01:35:53;;;;;;;48.58;19.65;;;;;;;;;;4996607;28;20034;-85
2023/12/04 01:38:18;;;;;;;49.10;20.15;;;;;;;;;;4987377;28;20133;-85
2023/12/04 01:40:44;;;;;;;43.72;19.13;;;;;;;;;;4977638;28;20465;-85
2023/12/04 01:43:09;;;;;;;47.42;20.30;;;;;;;;;;4988700;28;20489;-85
2023/12/04 01:45:35;;;;;;;47.85;20.25;;;;;;;;;;4995247;28;20038;-85
2023/12/04 01:48:00;;;;;;;50.30;19.55;;;;;;;;;;4969936;28;20477;-85
2023/12/04 01:50:26;;;;;;;45.22;19.10;;;;;;;;;;4995652;28;20474;-85
2023/12/04 01:52:52;;;;;;;48.15;20.58;;;;;;;;;;5009627;28;20034;-85
2023/12/04 01:55:17;;;;;;;49.13;21.65;;;;;;;;;;5005234;28;20034;-86
2023/12/04 01:57:43;;;;;;;44.17;18.83;;;;;;;;;;4985315;28;20045;-85
2023/12/04 02:00:11;;;;;;;44.72;18.00;;;;;;;;;;4989970;28;20061;-86
2023/12/04 02:02:38;;;;;;;44.75;19.45;;;;;;;;;;4996821;28;20042;-86
2023/12/04 02:05:04;;;;;;;47.73;19.80;;;;;;;;;;4994201;28;20457;-86
2023/12/04 02:07:30;;;;;;;44.25;20.33;;;;;;;;;;4986453;28;20515;-86
2023/12/04 02:09:56;;;;;;;46.63;19.73;;;;;;;;;;4993819;28;20129;-86
2023/12/04 02:12:21;;;;;;;47.95;20.52;;;;;;;;;;4987505;28;20493;-86
2023/12/04 02:14:47;;;;;;;48.95;21.05;;;;;;;;;;5012742;28;20058;-86
2023/12/04 02:17:12;;;;;;;44.55;18.30;;;;;;;;;;4989846;28;20026;-85
2023/12/04 02:19:38;;;;;;;50.15;19.42;;;;;;;;;;4992673;28;20050;-86
2023/12/04 02:22:03;;;;;;;47.13;20.17;;;;;;;;;;4994832;28;20038;-86
2023/12/04 02:24:31;;;;;;;46.28;20.30;;;;;;;;;;5011465;28;20038;-86
2023/12/04 02:26:59;;;;;;;48.85;20.92;;;;;;;;;;4987693;28;20045;-86
2023/12/04 02:29:32;;;;;;;49.08;19.73;;;;;;;;;;4986299;28;20061;-86
2023/12/04 02:31:59;;;;;;;43.55;18.55;;;;;;;;;;4995815;28;20085;-86
2023/12/04 02:34:25;;;;;;;47.65;19.35;;;;;;;;;;4988093;28;20026;-86
2023/12/04 02:36:51;;;;;;;47.53;20.33;;;;;;;;;;4999438;28;20036;-86
2023/12/04 02:39:17;;;;;;;52.90;20.45;;;;;;;;;;4986585;28;20049;-86
2023/12/04 02:41:42;;;;;;;47.33;20.45;;;;;;;;;;4977934;28;20033;-86
2023/12/04 02:44:08;;;;;;;45.88;20.25;;;;;;;;;;4967995;28;20556;-87
2023/12/04 02:46:33;;;;;;;43.53;19.70;;;;;;;;;;4986093;28;20038;-86
2023/12/04 02:48:58;;;;;;;45.53;20.00;;;;;;;;;;4988676;28;20065;-86
2023/12/04 02:51:26;;;;;;;44.67;19.63;;;;;;;;;;4995621;28;20042;-86
2023/12/04 02:53:51;;;;;;;;;;;;;;;;;;5010875;28;20034;-86
2023/12/04 02:56:16;;;;;;;39.53;17.75;;;;;;;;;;4985095;28;20048;-86
2023/12/04 02:58:42;;;;;;;43.33;19.23;;;;;;;;;;4986071;28;20137;-87
2023/12/04 03:01:07;;;;;;;40.05;18.38;;;;;;;;;;4969262;28;20045;-86
2023/12/04 03:03:32;;;;;;;44.67;19.65;;;;;;;;;;4998449;28;20029;-86
2023/12/04 03:05:58;;;;;;;41.97;18.73;;;;;;;;;;4992115;28;20398;-85
2023/12/04 03:08:23;;;;;;;41.20;18.98;;;;;;;;;;5013944;28;20061;-87
2023/12/04 03:10:49;;;;;;;45.10;18.98;;;;;;;;;;4984838;28;20437;-86
2023/12/04 03:13:14;;;;;;;38.63;18.08;;;;;;;;;;4985665;28;20398;-86
2023/12/04 03:15:39;;;;;;;46.80;20.55;;;;;;;;;;5002240;28;20050;-86
2023/12/04 03:18:05;;;;;;;44.67;20.10;;;;;;;;;;5006852;28;20129;-86
2023/12/04 03:20:32;;;;;;;48.42;21.27;;;;;;;;;;5011554;28;20479;-86
2023/12/04 03:22:57;;;;;;;46.47;19.95;;;;;;;;;;5018943;28;20516;-86
2023/12/04 03:25:23;;;;;;;48.90;20.55;;;;;;;;;;5013088;28;20042;-86
2023/12/04 03:27:48;;;;;;;45.05;19.33;;;;;;;;;;5020167;28;20153;-86
2023/12/04 03:30:14;;;;;;;43.92;19.38;;;;;;;;;;4999368;28;20034;-85
2023/12/04 03:32:39;;;;;;;47.38;19.92;;;;;;;;;;4971098;28;20088;-86
2023/12/04 03:35:04;;;;;;;44.05;19.70;;;;;;;;;;4989813;28;20038;-86
2023/12/04 03:37:30;;;;;;;44.88;19.98;;;;;;;;;;4989678;28;20521;-87
2023/12/04 03:39:55;;;;;;;43.50;19.65;;;;;;;;;;5003348;28;20050;-87
2023/12/04 03:42:21;;;;;;;47.83;19.05;;;;;;;;;;5011136;28;20422;-86
2023/12/04 03:44:46;;;;;;;40.92;19.00;;;;;;;;;;4989681;28;20043;-86
2023/12/04 03:47:11;;;;;;;42.83;19.42;;;;;;;;;;4985555;28;20054;-86
2023/12/04 03:49:37;;;;;;;44.00;19.67;;;;;;;;;;5017783;28;20049;-86
2023/12/04 03:52:02;;;;;;;42.28;17.85;;;;;;;;;;4997137;28;20033;-86
2023/12/04 03:54:28;;;;;;;42.40;20.10;;;;;;;;;;5014070;28;20076;-86
2023/12/04 03:56:53;;;;;;;46.95;19.58;;;;;;;;;;4992011;28;20051;-86
2023/12/04 03:59:19;;;;;;;42.50;18.52;;;;;;;;;;4989432;28;20540;-86
2023/12/04 04:01:44;;;;;;;44.72;18.88;;;;;;;;;;4998587;28;20041;-86
2023/12/04 04:04:09;;;;;;;41.67;19.55;;;;;;;;;;4992255;28;20056;-86
2023/12/04 04:06:35;;;;;;;43.15;19.83;;;;;;;;;;4996128;28;20061;-86
2023/12/04 04:09:00;;;;;;;41.83;19.63;;;;;;;;;;4972439;28;20089;-86
2023/12/04 04:11:25;;;;;;;38.42;18.08;;;;;;;;;;4997282;28;20458;-86
2023/12/04 04:13:51;;;;;;;42.92;18.90;;;;;;;;;;4980975;28;20043;-85
2023/12/04 04:16:16;;;;;;;42.33;18.10;;;;;;;;;;4999395;28;20069;-86
2023/12/04 04:18:43;;;;;;;38.05;18.08;;;;;;;;;;4996400;28;20064;-86
2023/12/04 04:21:09;;;;;;;43.43;19.50;;;;;;;;;;4986595;28;20081;-87
2023/12/04 04:23:34;;;;;;;39.83;18.58;;;;;;;;;;4989324;28;20113;-85
2023/12/04 04:25:59;;;;;;;39.95;18.90;;;;;;;;;;4991485;28;20100;-86
2023/12/04 04:28:25;;;;;;;44.00;18.77;;;;;;;;;;4987086;28;20038;-85
2023/12/04 04:30:50;;;;;;;39.03;18.52;;;;;;;;;;4997710;28;20042;-87
2023/12/04 04:33:17;;;;;;;39.22;18.80;;;;;;;;;;5013234;28;20548;-86
2023/12/04 04:35:42;;;;;;;39.25;19.13;;;;;;;;;;4964521;28;20499;-85
2023/12/04 04:38:08;;;;;;;41.58;18.67;;;;;;;;;;5010660;28;20037;-86
2023/12/04 04:40:34;;;;;;;39.33;18.00;;;;;;;;;;4997469;28;20038;-86
2023/12/04 04:42:59;;;;;;;40.47;17.65;;;;;;;;;;4996151;28;20034;-86
2023/12/04 04:45:24;;;;;;;41.80;18.20;;;;;;;;;;4998333;28;20100;-85
2023/12/04 04:47:50;;;;;;;39.05;17.38;;;;;;;;;;4990498;28;20046;-85
2023/12/04 04:50:15;;;;;;;39.42;17.83;;;;;;;;;;4979287;28;20398;-85
2023/12/04 04:52:41;;;;;;;38.20;17.75;;;;;;;;;;4995760;28;20034;-86
2023/12/04 04:55:06;;;;;;;40.30;17.67;;;;;;;;;;4988861;28;20046;-85
2023/12/04 04:57:32;;;;;;;37.95;17.73;;;;;;;;;;4993419;28;20077;-87
2023/12/04 04:59:59;;;;;;;39.33;17.83;;;;;;;;;;5011507;28;20104;-85
2023/12/04 05:03:03;;;;;;;37.95;17.23;;;;;;;;;;4995497;28;20494;-86
2023/12/04 05:12:39;;;;;;;40.13;16.80;;;;;;;;;;4867229;29;20038;-84
2023/12/04 05:15:05;;;;;;;35.65;16.25;;;;;;;;;;4851863;28;20035;-84
2023/12/04 05:17:30;;;;;;;39.17;17.35;;;;;;;;;;4965001;28;20506;-84
2023/12/04 05:19:56;;;;;;;33.17;16.10;;;;;;;;;;4986441;28;20394;-84
2023/12/04 05:22:21;;;;;;;35.42;16.80;;;;;;;;;;5003025;28;20038;-80
2023/12/04 05:24:47;;;;;;;38.95;15.73;;;;;;;;;;4994285;28;20946;-81
2023/12/04 05:27:12;;;;;;;36.38;16.83;;;;;;;;;;4987320;28;20536;-81
2023/12/04 05:29:37;;;;;;;35.17;16.30;;;;;;;;;;4986651;28;20044;-81
2023/12/04 05:32:03;;;;;;;34.45;16.77;;;;;;;;;;5009356;28;20684;-81
2023/12/04 05:34:29;;;;;;;34.60;16.45;;;;;;;;;;4984472;28;20037;-81
2023/12/04 05:36:54;;;;;;;36.17;17.17;;;;;;;;;;4978783;28;20042;-82
2023/12/04 05:39:20;;;;;;;33.83;15.52;;;;;;;;;;4995657;28;20038;-82
2023/12/04 05:41:45;;;;;;;31.95;15.63;;;;;;;;;;4987289;28;20053;-82
2023/12/04 05:44:10;;;;;;;37.50;16.13;;;;;;;;;;4994894;28;20774;-82
2023/12/04 05:46:36;;;;;;;35.60;16.67;;;;;;;;;;4986922;28;20048;-86
2023/12/04 05:49:01;;;;;;;34.92;15.82;;;;;;;;;;4994293;28;20058;-85
2023/12/04 05:51:26;;;;;;;36.28;17.33;;;;;;;;;;4969593;28;20034;-85
2023/12/04 05:54:24;;;;;;;32.53;15.27;;;;;;;;;;4989121;28;20101;-83
2023/12/04 05:56:49;;;;;;;36.45;15.80;;;;;;;;;;4985155;28;20042;-84
2023/12/04 05:59:14;;;;;;;31.98;16.05;;;;;;;;;;4986326;28;20041;-84
2023/12/04 06:01:40;;;;;;;37.47;16.38;;;;;;;;;;4993997;28;20109;-85
2023/12/04 06:04:05;;;;;;;35.30;16.58;;;;;;;;;;5010644;28;20038;-85
2023/12/04 06:06:31;;;;;;;34.58;16.42;;;;;;;;;;4983330;28;20034;-85
2023/12/04 06:08:56;;;;;;;35.92;16.08;;;;;;;;;;4998190;28;20040;-85
2023/12/04 06:11:21;;;;;;;34.38;16.35;;;;;;;;;;4987379;28;20091;-85
2023/12/04 06:21:13;;;;;;;38.40;16.40;;;;;;;;;;4979823;28;20257;-84
2023/12/04 06:23:39;;;;;;;35.15;16.25;;;;;;;;;;4943053;28;20206;-83
2023/12/04 06:26:04;;;;;;;34.78;16.73;;;;;;;;;;4946780;28;20120;-83
2023/12/04 06:28:30;;;;;;;37.00;17.20;;;;;;;;;;4978980;28;20064;-82
2023/12/04 06:30:56;;;;;;;36.15;16.73;;;;;;;;;;5009453;28;20059;-83
2023/12/04 06:33:21;;;;;;;33.33;16.20;;;;;;;;;;4981020;28;20037;-83
2023/12/04 06:35:47;;;;;;;35.20;16.98;;;;;;;;;;4986114;28;20095;-83
2023/12/04 06:38:18;;;;;;;36.70;16.20;;;;;;;;;;4996029;28;20058;-83
2023/12/04 06:40:45;;;;;;;40.22;17.83;;;;;;;;;;4985383;28;20582;-84
2023/12/04 06:43:10;;;;;;;40.20;18.15;;;;;;;;;;4979559;28;20494;-85
2023/12/04 06:45:36;;;;;;;36.17;16.35;;;;;;;;;;4962956;28;20096;-83
2023/12/04 06:48:02;;;;;;;34.90;16.52;;;;;;;;;;4956997;28;20465;-83
2023/12/04 06:50:27;;;;;;;36.00;17.35;;;;;;;;;;4966916;28;20516;-83
2023/12/04 06:52:52;;;;;;;38.10;17.05;;;;;;;;;;4989749;28;20058;-82
2023/12/04 06:55:18;;;;;;;38.05;17.85;;;;;;;;;;4974130;28;20061;-83
2023/12/04 06:57:43;;;;;;;36.00;16.77;;;;;;;;;;4990531;28;20051;-83
2023/12/04 07:00:29;;;;;;;38.17;16.67;;;;;;;;;;4984670;28;20101;-83
2023/12/04 07:02:55;;;;;;;33.78;17.00;;;;;;;;;;4943532;28;20079;-84
2023/12/04 07:05:21;;;;;;;36.15;17.02;;;;;;;;;;4928083;28;20645;-83
2023/12/04 07:07:46;;;;;;;34.55;16.75;;;;;;;;;;4928706;28;20051;-82
2023/12/04 07:10:14;;;;;;;32.58;16.08;;;;;;;;;;4912861;28;20509;-84
2023/12/04 07:12:40;;;;;;;37.67;18.05;;;;;;;;;;4912685;29;20605;-83
2023/12/04 07:15:07;;;;;;;32.17;16.30;;;;;;;;;;4929162;29;20141;-83
2023/12/04 07:17:32;;;;;;;34.13;16.23;;;;;;;;;;4943821;28;20106;-83
2023/12/04 07:19:57;;;;;;;34.20;16.73;;;;;;;;;;4929146;28;20138;-83
2023/12/04 07:22:23;;;;;;;35.03;16.25;;;;;;;;;;4911879;28;20054;-83
2023/12/04 07:24:54;;;;;;;35.50;16.63;;;;;;;;;;4943947;28;20042;-83
2023/12/04 07:27:20;;;;;;;33.40;15.65;;;;;;;;;;4911936;28;20043;-82
2023/12/04 07:29:45;;;;;;;33.70;16.63;;;;;;;;;;4913136;28;20133;-83
2023/12/04 07:32:11;;;;;;;31.02;15.35;;;;;;;;;;4908938;28;20043;-83
2023/12/04 07:34:37;;;;;;;35.63;17.20;;;;;;;;;;4912002;29;20071;-83
2023/12/04 07:37:02;;;;;;;30.52;15.98;;;;;;;;;;4926460;28;20513;-83
2023/12/04 07:39:28;;;;;;;31.98;15.52;;;;;;;;;;4925036;28;20046;-83
2023/12/04 08:33:37;;;;;;;24.60;12.85;;;;;;;;;;4983375;28;20101;-85
2023/12/04 08:36:03;;;;;;;25.77;13.00;;;;;;;;;;4971464;28;20038;-86
2023/12/04 08:38:28;;;;;;;26.25;13.38;;;;;;;;;;4972682;28;20042;-86
2023/12/04 08:40:54;;;;;;;25.48;12.93;;;;;;;;;;4978543;28;20038;-84
2023/12/04 08:43:19;;;;;;;27.60;13.13;;;;;;;;;;4975437;28;20119;-85
2023/12/04 08:45:47;;;;;;;24.10;12.68;;;;;;;;;;4943440;28;20063;-85
2023/12/04 08:48:13;;;;;;;22.30;12.50;;;;;;;;;;4960179;28;20371;-84
2023/12/04 08:51:34;;;;;;;26.40;12.82;;;;;;;;;;4954857;28;20050;-84
2023/12/04 08:53:59;;;;;;;26.98;13.00;;;;;;;;;;4944419;28;20509;-87
2023/12/04 09:14:40;;;;;;;24.98;13.02;;;;;;;;;;4877290;29;21481;-84
2023/12/04 09:20:41;;;;;;;26.60;13.48;;;;;;;;;;4910067;29;20139;-85
2023/12/04 09:27:52;;;;;;;24.88;11.95;;;;;;;;;;4801990;29;20061;-85
2023/12/04 09:37:33;;;;;;;24.90;12.65;;;;;;;;;;4780594;29;20058;-85
2023/12/04 09:39:59;;;;;;;24.27;12.15;;;;;;;;;;4749074;29;20061;-84
2023/12/04 09:42:24;;;;;;;24.00;12.73;;;;;;;;;;4788799;29;20034;-85
2023/12/04 09:44:52;;;;;;;23.25;11.93;;;;;;;;;;4784808;29;20129;-85
2023/12/04 09:47:20;;;;;;;;;;;;;;;;;;4773598;29;20115;-85
2023/12/04 09:49:45;;;;;;;26.92;13.57;;;;;;;;;;4830281;29;20071;-84
2023/12/04 09:52:11;;;;;;;23.42;12.35;;;;;;;;;;4814990;29;20042;-83
2023/12/04 09:54:37;;;;;;;24.63;12.80;;;;;;;;;;4776892;29;20070;-84
2023/12/04 09:57:04;;;;;;;25.02;12.73;;;;;;;;;;4823648;29;20522;-84
2023/12/04 09:59:30;;;;;;;24.42;12.35;;;;;;;;;;4900776;28;20453;-83
2023/12/04 10:02:15;;;;;;;23.05;12.48;;;;;;;;;;4950188;28;20042;-82
2023/12/04 10:04:42;;;;;;;23.33;12.38;;;;;;;;;;4923367;29;20107;-84
2023/12/04 10:07:08;;;;;;;25.07;12.20;;;;;;;;;;4908196;29;20722;-84
2023/12/04 10:09:36;;;;;;;29.75;12.50;;;;;;;;;;4922839;29;20063;-83
2023/12/04 10:12:01;;;;;;;25.02;12.07;;;;;;;;;;4920885;29;20047;-83
2023/12/04 10:14:27;;;;;;;25.38;12.85;;;;;;;;;;4904868;29;20465;-83
2023/12/04 10:16:55;;;;;;;25.55;12.43;;;;;;;;;;4920810;29;20050;-83
2023/12/04 10:19:26;;;;;;;23.98;12.40;;;;;;;;;;4905413;29;20590;-82
2023/12/04 10:21:52;;;;;;;23.73;12.32;;;;;;;;;;4921599;29;20040;-84
2023/12/04 10:24:35;;;;;;;24.42;12.95;;;;;;;;;;4907022;29;20051;-86
2023/12/04 10:27:11;;;;;;;25.25;12.82;;;;;;;;;;4907623;29;20542;-86
2023/12/04 10:29:42;;;;;;;23.92;13.15;;;;;;;;;;4895442;29;20043;-87
2023/12/04 10:32:08;;;;;;;21.38;11.02;;;;;;;;;;4899152;29;20475;-85
2023/12/04 10:34:33;;;;;;;23.83;12.52;;;;;;;;;;4920393;29;20039;-85
2023/12/04 10:36:59;;;;;;;23.85;12.68;;;;;;;;;;4904467;29;20167;-86
2023/12/04 10:55:41;;;;;;;21.88;11.80;;;;;;;;;;4984247;28;20050;-86
2023/12/04 10:58:14;;;;;;;23.00;11.57;;;;;;;;;;4947592;28;20074;-85
2023/12/04 11:00:56;;;;;;;21.23;11.50;;;;;;;;;;4944911;28;20069;-86
2023/12/04 11:03:44;;;;;;;20.60;10.80;;;;;;;;;;4954854;28;20034;-86
2023/12/04 11:06:42;;;;;;;21.42;10.98;;;;;;;;;;4951930;28;20034;-85
2023/12/04 11:09:13;;;;;;;20.05;10.75;;;;;;;;;;4918711;28;20109;-86
2023/12/04 11:11:40;;;;;;;20.30;11.07;;;;;;;;;;4941233;28;20038;-85
2023/12/04 11:14:18;;;;;;;22.25;11.05;;;;;;;;;;4927074;28;20035;-87
2023/12/04 11:16:58;;;;;;;19.58;10.38;;;;;;;;;;4947748;28;20101;-86
2023/12/04 11:19:29;;;;;;;22.02;10.73;;;;;;;;;;4954788;28;20077;-86
2023/12/04 11:22:09;;;;;;;19.20;10.38;;;;;;;;;;4952404;28;20039;-87
2023/12/04 11:24:35;;;;;;;20.38;10.95;;;;;;;;;;4969906;28;20037;-87
2023/12/04 11:27:01;;;;;;;21.40;10.98;;;;;;;;;;4955384;28;20030;-86
2023/12/04 11:29:27;;;;;;;19.13;10.27;;;;;;;;;;4974599;28;20486;-86
2023/12/04 11:31:53;;;;;;;22.30;11.45;;;;;;;;;;4944390;28;20037;-86
2023/12/04 11:34:18;;;;;;;20.45;10.93;;;;;;;;;;4961502;28;20038;-86
2023/12/04 11:37:36;;;;;;;21.25;11.25;;;;;;;;;;4938769;28;20066;-83
2023/12/04 11:43:31;;;;;;;22.05;10.27;;;;;;;;;;4944354;28;21143;-85
2023/12/04 11:46:30;;;;;;;20.52;10.60;;;;;;;;;;4915574;28;20046;-85
2023/12/04 11:49:44;;;;;;;19.52;9.90;;;;;;;;;;4909992;28;20039;-84
2023/12/04 11:52:20;;;;;;;19.50;9.65;;;;;;;;;;4942627;28;20461;-83
2023/12/04 11:55:41;;;;;;;18.95;9.90;;;;;;;;;;4940860;28;20434;-84
2023/12/04 11:58:10;;;;;;;17.17;9.35;;;;;;;;;;4946092;28;20070;-84
2023/12/04 12:00:42;;;;;;;18.98;10.15;;;;;;;;;;4966567;28;20138;-84
2023/12/04 12:03:18;;;;;;;19.80;10.07;;;;;;;;;;4957752;28;20042;-84
2023/12/04 12:06:11;;;;;;;17.77;9.55;;;;;;;;;;4931520;28;20491;-84
2023/12/04 12:08:42;;;;;;;17.98;10.35;;;;;;;;;;4957425;28;20294;-83
2023/12/04 12:11:07;;;;;;;16.83;9.52;;;;;;;;;;4925336;28;20045;-86
2023/12/04 12:13:33;;;;;;;18.88;10.50;;;;;;;;;;4944884;28;20399;-86
2023/12/04 12:16:28;;;;;;;19.58;10.27;;;;;;;;;;4941602;28;20070;-87
2023/12/04 12:19:01;;;;;;;15.52;9.10;;;;;;;;;;4921841;28;21017;-85
2023/12/04 12:25:02;;;;;;;18.65;10.25;;;;;;;;;;4897886;29;20393;-86
2023/12/04 12:27:43;;;;;;;;;;;;;;;;;;;;;
2023/12/04 12:30:10;;;;;;;17.85;9.98;;;;;;;;;;4942027;28;20553;-85
2023/12/04 12:32:35;;;;;;;19.00;10.18;;;;;;;;;;4928804;28;20039;-86
2023/12/04 12:35:01;;;;;;;18.48;9.48;;;;;;;;;;4950802;28;20490;-85
2023/12/04 12:37:26;;;;;;;18.00;9.80;;;;;;;;;;4951557;28;20031;-86
2023/12/04 12:39:53;;;;;;;18.15;9.98;;;;;;;;;;4951188;28;20138;-85
2023/12/04 12:42:26;;;;;;;17.63;9.73;;;;;;;;;;4949352;28;20045;-86
2023/12/04 12:44:53;;;;;;;17.27;9.15;;;;;;;;;;4926393;28;20312;-84
2023/12/04 12:47:22;;;;;;;17.67;9.43;;;;;;;;;;4919742;28;20035;-84
2023/12/04 12:49:49;;;;;;;19.73;10.07;;;;;;;;;;4929530;28;20069;-84
2023/12/04 12:52:17;;;;;;;18.07;9.10;;;;;;;;;;4922654;28;20041;-84
2023/12/04 12:54:44;;;;;;;16.73;9.40;;;;;;;;;;4945722;28;20497;-85
2023/12/04 12:57:11;;;;;;;18.92;10.32;;;;;;;;;;4970050;28;20097;-85
2023/12/04 12:59:37;;;;;;;20.50;11.07;;;;;;;;;;4936198;28;20043;-84
2023/12/04 13:02:04;;;;;;;18.17;10.07;;;;;;;;;;4951057;28;20044;-85
2023/12/04 13:04:35;;;;;;;16.03;9.27;;;;;;;;;;4950741;28;20778;-85
2023/12/04 13:07:02;;;;;;;17.83;9.95;;;;;;;;;;4966370;28;20322;-84
2023/12/04 13:09:28;;;;;;;17.65;9.68;;;;;;;;;;4982287;28;20046;-84
2023/12/04 13:11:53;;;;;;;16.83;9.50;;;;;;;;;;4967538;28;20750;-84
2023/12/04 13:14:19;;;;;;;18.60;10.70;;;;;;;;;;4970213;28;20046;-84
2023/12/04 13:16:44;;;;;;;19.63;9.77;;;;;;;;;;4935064;28;20372;-84
2023/12/04 13:19:09;;;;;;;18.67;9.85;;;;;;;;;;4968239;28;20088;-84
2023/12/04 13:21:35;;;;;;;18.70;10.35;;;;;;;;;;4966610;28;20121;-85
2023/12/04 13:24:00;;;;;;;19.73;10.43;;;;;;;;;;4938567;28;20049;-85
2023/12/04 13:26:25;;;;;;;19.83;10.18;;;;;;;;;;4964645;28;20034;-84
2023/12/04 13:28:51;;;;;;;18.70;10.38;;;;;;;;;;4959399;28;20049;-85
2023/12/04 13:31:16;;;;;;;19.08;10.13;;;;;;;;;;4936930;28;20094;-85
2023/12/04 13:33:47;;;;;;;19.65;10.05;;;;;;;;;;4934943;28;20052;-84
2023/12/04 13:36:12;;;;;;;19.02;9.98;;;;;;;;;;4934890;28;20050;-84
2023/12/04 13:38:37;;;;;;;19.23;10.57;;;;;;;;;;4934821;28;20073;-85
2023/12/04 13:43:49;;;;;;;20.42;11.40;;;;;;;;;;4947434;28;20110;-85
2023/12/04 13:43:54;;;;;;;18.17;9.90;;;;;;;;;;4951373;28;20034;-84
2023/12/04 13:46:20;;;;;;;17.27;10.00;;;;;;;;;;4963901;28;20047;-84
2023/12/04 13:48:45;;;;;;;20.13;10.60;;;;;;;;;;4933019;28;20514;-84
2023/12/04 13:51:12;;;;;;;20.48;10.45;;;;;;;;;;4962569;28;20030;-84
2023/12/04 13:53:44;;;;;;;20.45;11.25;;;;;;;;;;4950387;28;20525;-84
2023/12/04 13:56:52;;;;;;;19.15;10.90;;;;;;;;;;4940985;28;20035;-84
2023/12/04 13:59:04;;;;;;;19.50;10.77;;;;;;;;;;4951177;28;20062;-83
2023/12/04 14:01:29;;;;;;;19.33;10.15;;;;;;;;;;4965482;28;20101;-84
2023/12/04 14:04:01;;;;;;;21.02;11.68;;;;;;;;;;4934925;28;20039;-84
2023/12/04 14:06:27;;;;;;;19.45;11.57;;;;;;;;;;4933760;28;20031;-84
2023/12/04 14:08:52;;;;;;;18.15;10.82;;;;;;;;;;4947622;28;20053;-85
2023/12/04 14:11:18;;;;;;;22.17;11.43;;;;;;;;;;4933297;28;20031;-85
2023/12/04 14:13:43;;;;;;;18.85;10.60;;;;;;;;;;4949971;28;20133;-84
2023/12/04 14:16:09;;;;;;;20.13;11.23;;;;;;;;;;4931722;28;20045;-84
2023/12/04 14:18:34;;;;;;;21.90;11.32;;;;;;;;;;4965468;28;20031;-84
2023/12/04 14:21:00;;;;;;;20.80;10.90;;;;;;;;;;4965216;28;20043;-84
2023/12/04 14:23:27;;;;;;;20.67;11.32;;;;;;;;;;4952625;28;20501;-85
2023/12/04 14:25:53;;;;;;;;;;;;;;;;;;4950673;28;20035;-83
2023/12/04 14:28:18;;;;;;;20.80;10.98;;;;;;;;;;4949739;28;20405;-85
2023/12/04 14:30:45;;;;;;;20.85;10.73;;;;;;;;;;4934132;28;20476;-84
2023/12/04 14:33:10;;;;;;;21.23;11.13;;;;;;;;;;4935629;28;20096;-85
2023/12/04 14:35:38;;;;;;;20.98;11.38;;;;;;;;;;4935119;28;20325;-83
2023/12/04 14:38:07;;;;;;;19.55;11.55;;;;;;;;;;4950989;28;20510;-84
2023/12/04 14:40:32;;;;;;;22.75;11.25;;;;;;;;;;4954406;28;20053;-84
2023/12/04 14:42:58;;;;;;;20.08;10.68;;;;;;;;;;4948136;28;20034;-85
2023/12/04 14:45:23;;;;;;;23.48;11.50;;;;;;;;;;4964301;28;20034;-84
2023/12/04 14:47:52;;;;;;;21.90;12.02;;;;;;;;;;4964453;28;20049;-84
2023/12/04 14:50:17;;;;;;;19.90;11.05;;;;;;;;;;4950851;28;20429;-84
2023/12/04 14:52:50;;;;;;;20.85;11.10;;;;;;;;;;4941662;28;20047;-85
2023/12/04 15:18:38;;;;;;;19.13;11.02;;;;;;;;;;4952351;28;20471;-84
2023/12/04 15:21:04;;;;;;;22.45;11.65;;;;;;;;;;4964661;28;20458;-84
2023/12/04 15:23:30;;;;;;;21.60;11.13;;;;;;;;;;4950345;28;20769;-84
2023/12/04 15:25:55;;;;;;;18.13;10.15;;;;;;;;;;4983167;28;20094;-84
2023/12/04 15:28:23;;;;;;;22.35;12.45;;;;;;;;;;4936538;28;20035;-83
2023/12/04 15:30:49;;;;;;;24.25;11.88;;;;;;;;;;4938322;28;20101;-83
2023/12/04 15:33:15;;;;;;;22.25;11.73;;;;;;;;;;4933152;28;20043;-83
2023/12/04 15:35:41;;;;;;;23.40;11.93;;;;;;;;;;4978626;28;20558;-83
2023/12/04 15:38:07;;;;;;;22.83;11.52;;;;;;;;;;4964484;28;20102;-83
2023/12/04 15:40:32;;;;;;;19.70;11.43;;;;;;;;;;4935008;28;20676;-83
2023/12/04 15:42:58;;;;;;;22.48;11.98;;;;;;;;;;4965825;28;20447;-82
2023/12/04 15:45:23;;;;;;;23.90;11.05;;;;;;;;;;4933603;28;20039;-83
2023/12/04 15:47:49;;;;;;;23.95;11.25;;;;;;;;;;4964330;28;20050;-84
2023/12/04 15:50:14;;;;;;;20.80;11.57;;;;;;;;;;4948082;28;20046;-84
2023/12/04 15:52:41;;;;;;;21.25;11.23;;;;;;;;;;4932717;28;20043;-84
2023/12/04 15:55:10;;;;;;;21.73;11.57;;;;;;;;;;4935498;28;20538;-85
2023/12/04 15:57:36;;;;;;;20.23;10.85;;;;;;;;;;4962195;28;20046;-84
2023/12/04 16:00:02;;;;;;;18.48;10.70;;;;;;;;;;4934855;28;20427;-84
2023/12/04 16:02:31;;;;;;;20.75;11.27;;;;;;;;;;4932253;28;20058;-82
2023/12/04 16:04:56;;;;;;;20.92;11.95;;;;;;;;;;4934579;28;20043;-83
2023/12/04 16:07:21;;;;;;;20.58;11.63;;;;;;;;;;4949390;28;20046;-83
2023/12/04 16:09:47;;;;;;;19.80;11.57;;;;;;;;;;4934517;28;20044;-83
2023/12/04 16:12:12;;;;;;;19.35;11.02;;;;;;;;;;4947971;28;20453;-82
2023/12/04 16:14:37;;;;;;;21.15;11.30;;;;;;;;;;4932990;29;20431;-83
2023/12/04 16:17:03;;;;;;;21.00;11.23;;;;;;;;;;4946896;28;20039;-83
2023/12/04 16:19:30;;;;;;;21.67;11.80;;;;;;;;;;4952771;28;20035;-82
2023/12/04 16:21:56;;;;;;;20.83;11.05;;;;;;;;;;4946224;28;20042;-81
2023/12/04 16:24:23;;;;;;;18.70;10.23;;;;;;;;;;4931559;28;20035;-83
2023/12/04 16:26:51;;;;;;;19.27;11.25;;;;;;;;;;4947085;28;20103;-83
2023/12/04 16:29:16;;;;;;;21.35;11.50;;;;;;;;;;4948582;28;20459;-83
2023/12/04 16:31:42;;;;;;;21.40;11.55;;;;;;;;;;4949868;28;20039;-84
2023/12/04 16:34:07;;;;;;;20.67;11.05;;;;;;;;;;4963173;28;20366;-83
2023/12/04 16:36:32;;;;;;;20.25;11.00;;;;;;;;;;4930343;28;20063;-83
2023/12/04 16:38:58;;;;;;;19.67;10.90;;;;;;;;;;4934772;28;20062;-83
2023/12/04 16:41:23;;;;;;;20.00;11.20;;;;;;;;;;4932382;28;20082;-83
2023/12/04 16:43:49;;;;;;;22.00;11.48;;;;;;;;;;4947613;28;20562;-83
2023/12/04 16:46:14;;;;;;;20.58;11.27;;;;;;;;;;4945828;28;20054;-84
2023/12/04 16:48:39;;;;;;;20.63;11.50;;;;;;;;;;4940770;28;20158;-83
2023/12/04 16:51:05;;;;;;;19.05;10.65;;;;;;;;;;4948272;28;20035;-83